Time;durP1;ratioP1;P1;durP2;ratioP2;P2;SDS_P1;SDS_P2;PMS_P1;PMS_P2;Temp;Humidity;BMP_temperature;BMP_pressure;BME280_temperature;BME280_humidity;BME280_pressure;Samples;Min_cycle;Max_cycle;Signal;HPM_P1;HPM_P2
2023/08/05 00:02:19;;;;;;;14.60;13.38;;;;;;;;;;5103481;28;20099;-74
2023/08/05 00:04:44;;;;;;;16.23;13.88;;;;;;;;;;5101040;28;20437;-74
2023/08/05 00:07:10;;;;;;;15.48;14.18;;;;;;;;;;5099581;28;20050;-74
2023/08/05 00:09:35;;;;;;;16.50;15.02;;;;;;;;;;5101528;27;20024;-76
2023/08/05 00:12:00;;;;;;;17.30;15.73;;;;;;;;;;5103004;28;20035;-74
2023/08/05 00:14:28;;;;;;;16.55;14.88;;;;;;;;;;5101783;28;20118;-74
2023/08/05 00:16:54;;;;;;;14.10;12.90;;;;;;;;;;5101751;28;20107;-74
2023/08/05 00:19:19;;;;;;;15.70;14.13;;;;;;;;;;5098847;28;20410;-74
2023/08/05 00:21:44;;;;;;;14.80;13.60;;;;;;;;;;5100035;28;20035;-74
2023/08/05 00:24:10;;;;;;;15.02;13.63;;;;;;;;;;5101847;28;20027;-73
2023/08/05 00:26:35;;;;;;;16.38;14.98;;;;;;;;;;5102070;27;20027;-73
2023/08/05 00:29:00;;;;;;;16.85;15.30;;;;;;;;;;5101048;28;20114;-74
2023/08/05 00:31:26;;;;;;;15.43;14.13;;;;;;;;;;5099442;28;20473;-77
2023/08/05 00:33:51;;;;;;;15.55;14.15;;;;;;;;;;5100573;28;20408;-74
2023/08/05 00:36:17;;;;;;;15.02;13.55;;;;;;;;;;5099587;28;20453;-74
2023/08/05 00:38:42;;;;;;;14.77;13.57;;;;;;;;;;5099186;28;20040;-74
2023/08/05 00:41:07;;;;;;;14.63;13.32;;;;;;;;;;5099723;28;20444;-74
2023/08/05 00:43:33;;;;;;;13.90;12.77;;;;;;;;;;5102008;27;20339;-74
2023/08/05 00:45:59;;;;;;;14.13;12.27;;;;;;;;;;5103625;28;20031;-74
2023/08/05 00:48:25;;;;;;;13.57;12.32;;;;;;;;;;5102689;28;20035;-74
2023/08/05 00:50:50;;;;;;;13.20;12.00;;;;;;;;;;5101392;28;20436;-77
2023/08/05 00:53:16;;;;;;;14.98;11.88;;;;;;;;;;5097018;28;20116;-74
2023/08/05 00:55:42;;;;;;;12.48;11.38;;;;;;;;;;5100575;28;20340;-76
2023/08/05 00:58:08;;;;;;;13.55;12.35;;;;;;;;;;5101139;28;20059;-74
2023/08/05 01:00:33;;;;;;;11.98;11.00;;;;;;;;;;5098447;28;20063;-77
2023/08/05 01:02:58;;;;;;;13.25;12.15;;;;;;;;;;5097585;27;20419;-75
2023/08/05 01:05:24;;;;;;;12.98;11.82;;;;;;;;;;5101087;28;20431;-74
2023/08/05 01:07:49;;;;;;;12.45;11.38;;;;;;;;;;5101099;28;20515;-77
2023/08/05 01:10:14;;;;;;;14.18;10.85;;;;;;;;;;5099842;28;20096;-74
2023/08/05 01:12:41;;;;;;;11.93;10.82;;;;;;;;;;5095792;28;20036;-73
2023/08/05 01:15:06;;;;;;;11.90;10.77;;;;;;;;;;5099200;28;20035;-74
2023/08/05 01:17:32;;;;;;;10.05;9.15;;;;;;;;;;5099861;28;20031;-74
2023/08/05 01:19:57;;;;;;;9.95;8.93;;;;;;;;;;5100821;28;20035;-73
2023/08/05 01:22:26;;;;;;;9.70;8.90;;;;;;;;;;5100919;28;20043;-74
2023/08/05 01:24:55;;;;;;;9.05;8.23;;;;;;;;;;5097800;28;20138;-72
2023/08/05 01:27:21;;;;;;;8.63;7.82;;;;;;;;;;5100303;28;20031;-73
2023/08/05 01:29:47;;;;;;;9.80;7.78;;;;;;;;;;5101121;28;20027;-73
2023/08/05 01:32:14;;;;;;;8.93;8.00;;;;;;;;;;5097883;28;20349;-73
2023/08/05 01:34:39;;;;;;;9.18;8.00;;;;;;;;;;5101219;28;20331;-75
2023/08/05 01:37:05;;;;;;;8.45;7.55;;;;;;;;;;5096891;28;20034;-73
2023/08/05 01:39:30;;;;;;;11.95;7.70;;;;;;;;;;5100425;28;20662;-73
2023/08/05 01:41:56;;;;;;;8.75;7.93;;;;;;;;;;5100378;28;20027;-71
2023/08/05 01:44:22;;;;;;;8.73;7.93;;;;;;;;;;5098536;27;20176;-72
2023/08/05 01:46:47;;;;;;;8.93;8.18;;;;;;;;;;5099407;28;20034;-72
2023/08/05 01:49:12;;;;;;;8.95;8.05;;;;;;;;;;5100473;28;20030;-73
2023/08/05 01:51:37;;;;;;;8.20;7.50;;;;;;;;;;5099177;28;20031;-74
2023/08/05 01:54:03;;;;;;;9.32;7.18;;;;;;;;;;5099674;28;20108;-76
2023/08/05 01:56:28;;;;;;;10.80;7.30;;;;;;;;;;5097551;28;21138;-75
2023/08/05 01:58:53;;;;;;;8.98;8.07;;;;;;;;;;5098517;28;20038;-73
2023/08/05 02:01:19;;;;;;;8.77;7.97;;;;;;;;;;5100588;28;20023;-73
2023/08/05 02:03:44;;;;;;;10.27;9.30;;;;;;;;;;5100142;27;20024;-74
2023/08/05 02:06:09;;;;;;;12.65;11.35;;;;;;;;;;5098797;28;20028;-72
2023/08/05 02:08:35;;;;;;;11.98;10.75;;;;;;;;;;5099129;28;20453;-72
2023/08/05 02:11:02;;;;;;;14.10;12.80;;;;;;;;;;5099184;28;20525;-72
2023/08/05 02:13:27;;;;;;;13.88;12.63;;;;;;;;;;5098046;28;20020;-72
2023/08/05 02:15:52;;;;;;;15.38;14.07;;;;;;;;;;5099083;28;20043;-73
2023/08/05 02:18:18;;;;;;;15.38;14.07;;;;;;;;;;5098771;28;20024;-72
2023/08/05 02:20:43;;;;;;;16.83;15.38;;;;;;;;;;5100173;28;20037;-74
2023/08/05 02:23:08;;;;;;;17.50;15.65;;;;;;;;;;5099670;28;20102;-72
2023/08/05 02:25:34;;;;;;;16.33;14.82;;;;;;;;;;5099819;28;20024;-76
2023/08/05 02:27:59;;;;;;;16.60;14.85;;;;;;;;;;5099537;28;20099;-74
2023/08/05 02:30:24;;;;;;;16.38;14.90;;;;;;;;;;5099700;28;20039;-74
2023/08/05 02:32:50;;;;;;;16.70;12.15;;;;;;;;;;5096378;28;20446;-73
2023/08/05 02:35:15;;;;;;;13.32;12.20;;;;;;;;;;5096726;28;20496;-73
2023/08/05 02:37:41;;;;;;;16.63;15.02;;;;;;;;;;5098801;28;20024;-73
2023/08/05 02:40:07;;;;;;;14.07;12.98;;;;;;;;;;5096834;28;20121;-75
2023/08/05 02:42:32;;;;;;;17.15;12.77;;;;;;;;;;5096379;28;20023;-75
2023/08/05 02:44:57;;;;;;;14.57;11.82;;;;;;;;;;5098710;28;20039;-74
2023/08/05 02:47:23;;;;;;;13.80;12.48;;;;;;;;;;5101010;28;20038;-73
2023/08/05 02:49:48;;;;;;;13.48;12.27;;;;;;;;;;5098965;28;20046;-74
2023/08/05 02:52:13;;;;;;;13.73;12.32;;;;;;;;;;5098024;28;20520;-73
2023/08/05 02:54:39;;;;;;;13.38;12.15;;;;;;;;;;5098315;28;20362;-73
2023/08/05 02:57:04;;;;;;;12.68;11.27;;;;;;;;;;5097543;28;20386;-74
2023/08/05 02:59:29;;;;;;;16.90;12.18;;;;;;;;;;5099396;28;20032;-75
2023/08/05 03:01:55;;;;;;;12.93;11.80;;;;;;;;;;5099270;28;20020;-74
2023/08/05 03:04:20;;;;;;;12.45;11.23;;;;;;;;;;5098377;28;20024;-74
2023/08/05 03:06:46;;;;;;;12.05;11.00;;;;;;;;;;5095310;28;20551;-73
2023/08/05 03:09:12;;;;;;;18.45;10.68;;;;;;;;;;5097354;28;20751;-75
2023/08/05 03:11:38;;;;;;;12.98;11.73;;;;;;;;;;5099137;28;20035;-73
2023/08/05 03:14:03;;;;;;;12.88;11.77;;;;;;;;;;5097910;28;20051;-76
2023/08/05 03:16:28;;;;;;;12.73;11.40;;;;;;;;;;5098790;28;20035;-73
2023/08/05 03:18:53;;;;;;;14.98;12.10;;;;;;;;;;5097038;28;20024;-73
2023/08/05 03:21:19;;;;;;;14.63;12.38;;;;;;;;;;5095241;28;20035;-74
2023/08/05 03:23:44;;;;;;;13.52;12.48;;;;;;;;;;5098030;28;20098;-75
2023/08/05 03:26:09;;;;;;;13.70;12.57;;;;;;;;;;5097595;28;20080;-73
2023/08/05 03:28:35;;;;;;;15.45;13.02;;;;;;;;;;5096690;28;20027;-76
2023/08/05 03:31:00;;;;;;;14.48;13.18;;;;;;;;;;5097433;28;20044;-74
2023/08/05 03:33:25;;;;;;;14.15;12.85;;;;;;;;;;5098288;28;20370;-73
2023/08/05 03:35:51;;;;;;;15.55;14.23;;;;;;;;;;5097289;28;20020;-77
2023/08/05 03:38:17;;;;;;;15.40;14.18;;;;;;;;;;5096887;28;20108;-73
2023/08/05 03:40:42;;;;;;;17.58;15.93;;;;;;;;;;5098652;28;20040;-74
2023/08/05 03:43:08;;;;;;;16.73;15.32;;;;;;;;;;5099484;28;20028;-73
2023/08/05 03:45:33;;;;;;;17.63;16.02;;;;;;;;;;5098652;28;20018;-74
2023/08/05 03:47:59;;;;;;;16.58;15.20;;;;;;;;;;5097005;28;20019;-75
2023/08/05 03:50:28;;;;;;;17.85;16.25;;;;;;;;;;5098535;28;20531;-74
2023/08/05 03:52:53;;;;;;;18.98;17.38;;;;;;;;;;5098134;28;20015;-74
2023/08/05 03:55:19;;;;;;;18.90;17.20;;;;;;;;;;5101768;28;20086;-76
2023/08/05 03:57:46;;;;;;;18.58;16.88;;;;;;;;;;5103084;28;20084;-76
2023/08/05 04:00:12;;;;;;;19.52;17.73;;;;;;;;;;5099569;28;20552;-73
2023/08/05 04:02:37;;;;;;;18.95;17.17;;;;;;;;;;5103720;27;20027;-73
2023/08/05 04:05:05;;;;;;;18.38;16.88;;;;;;;;;;5102470;28;20020;-74
2023/08/05 04:07:31;;;;;;;18.88;17.10;;;;;;;;;;5101340;28;20022;-75
2023/08/05 04:09:56;;;;;;;20.88;19.10;;;;;;;;;;5101411;28;20027;-74
2023/08/05 04:12:22;;;;;;;19.02;17.52;;;;;;;;;;5102412;28;20035;-72
2023/08/05 04:14:50;;;;;;;18.63;17.08;;;;;;;;;;5101331;28;20039;-74
2023/08/05 04:17:15;;;;;;;19.33;17.73;;;;;;;;;;5099921;28;20026;-77
2023/08/05 04:19:41;;;;;;;21.05;18.92;;;;;;;;;;5102398;28;20023;-74
2023/08/05 04:22:06;;;;;;;19.77;17.90;;;;;;;;;;5097969;28;20088;-73
2023/08/05 04:24:32;;;;;;;20.25;18.27;;;;;;;;;;5101362;28;20391;-74
2023/08/05 04:26:58;;;;;;;18.48;16.95;;;;;;;;;;5103221;28;20674;-72
2023/08/05 04:29:23;;;;;;;18.65;17.15;;;;;;;;;;5099839;28;20028;-73
2023/08/05 04:31:49;;;;;;;20.50;18.70;;;;;;;;;;5099441;28;20044;-72
2023/08/05 04:34:14;;;;;;;21.73;19.05;;;;;;;;;;5101918;28;20366;-75
2023/08/05 04:36:40;;;;;;;20.83;18.77;;;;;;;;;;5100681;28;20132;-72
2023/08/05 04:39:06;;;;;;;20.55;18.67;;;;;;;;;;5100999;28;20112;-75
2023/08/05 04:41:31;;;;;;;19.35;17.60;;;;;;;;;;5096877;28;20078;-73
2023/08/05 04:43:57;;;;;;;20.15;18.35;;;;;;;;;;5100213;28;20063;-73
2023/08/05 04:46:22;;;;;;;21.15;19.20;;;;;;;;;;5100638;28;20386;-73
2023/08/05 04:48:47;;;;;;;20.13;18.27;;;;;;;;;;5099934;28;20484;-72
2023/08/05 04:51:13;;;;;;;19.73;17.92;;;;;;;;;;5101405;28;20036;-73
2023/08/05 04:53:38;;;;;;;20.42;18.70;;;;;;;;;;5101763;28;20056;-73
2023/08/05 04:56:04;;;;;;;20.83;18.77;;;;;;;;;;5101714;28;20076;-72
2023/08/05 04:58:29;;;;;;;19.25;17.60;;;;;;;;;;5101204;28;20092;-77
2023/08/05 05:00:55;;;;;;;19.20;17.10;;;;;;;;;;5100616;28;20031;-72
2023/08/05 05:03:20;;;;;;;19.05;17.33;;;;;;;;;;5100329;28;20027;-73
2023/08/05 05:05:46;;;;;;;19.90;18.17;;;;;;;;;;5101056;28;20023;-73
2023/08/05 05:08:11;;;;;;;19.50;17.85;;;;;;;;;;5101467;28;20031;-73
2023/08/05 05:10:37;;;;;;;19.15;17.55;;;;;;;;;;5099884;28;20439;-74
2023/08/05 05:13:02;;;;;;;20.70;17.08;;;;;;;;;;5096926;28;20035;-73
2023/08/05 05:15:27;;;;;;;18.27;16.73;;;;;;;;;;5100563;28;20050;-73
2023/08/05 05:17:53;;;;;;;18.05;16.30;;;;;;;;;;5102198;28;20019;-76
2023/08/05 05:20:18;;;;;;;18.92;17.02;;;;;;;;;;5097836;28;20383;-75
2023/08/05 05:22:44;;;;;;;18.80;17.10;;;;;;;;;;5100784;28;20343;-74
2023/08/05 05:25:09;;;;;;;17.83;16.25;;;;;;;;;;5100086;28;20042;-76
2023/08/05 05:27:35;;;;;;;18.52;16.75;;;;;;;;;;5100173;28;20093;-74
2023/08/05 05:30:00;;;;;;;17.70;16.10;;;;;;;;;;5100368;28;20035;-74
2023/08/05 05:32:25;;;;;;;18.35;16.55;;;;;;;;;;5098349;28;20024;-73
2023/08/05 05:34:51;;;;;;;18.45;16.75;;;;;;;;;;5102225;28;20031;-73
2023/08/05 05:37:16;;;;;;;19.23;17.52;;;;;;;;;;5097126;28;20035;-73
2023/08/05 05:39:41;;;;;;;17.75;16.17;;;;;;;;;;5098727;28;20514;-73
2023/08/05 05:42:07;;;;;;;19.35;17.10;;;;;;;;;;5097811;28;20024;-73
2023/08/05 05:44:32;;;;;;;18.20;16.77;;;;;;;;;;5099644;27;20025;-74
2023/08/05 05:46:57;;;;;;;18.27;16.77;;;;;;;;;;5097077;28;20027;-73
2023/08/05 05:49:23;;;;;;;19.20;17.25;;;;;;;;;;5099034;28;20405;-75
2023/08/05 05:51:48;;;;;;;16.42;15.13;;;;;;;;;;5098698;28;20138;-74
2023/08/05 05:54:14;;;;;;;17.88;16.38;;;;;;;;;;5100708;28;20038;-72
2023/08/05 05:56:39;;;;;;;16.98;15.35;;;;;;;;;;5098984;28;20038;-77
2023/08/05 05:59:05;;;;;;;15.98;14.60;;;;;;;;;;5101355;28;20451;-73
2023/08/05 06:01:30;;;;;;;17.08;15.57;;;;;;;;;;5100896;28;20064;-74
2023/08/05 06:03:56;;;;;;;16.55;15.15;;;;;;;;;;5096130;27;20419;-75
2023/08/05 06:06:21;;;;;;;16.98;15.48;;;;;;;;;;5098240;28;20505;-74
2023/08/05 06:08:46;;;;;;;15.32;13.75;;;;;;;;;;5098521;28;20430;-74
2023/08/05 06:11:12;;;;;;;15.57;14.18;;;;;;;;;;5098300;28;20035;-76
2023/08/05 06:13:37;;;;;;;15.98;14.57;;;;;;;;;;5098500;28;20030;-74
2023/08/05 06:16:03;;;;;;;18.02;13.70;;;;;;;;;;5099268;28;20028;-73
2023/08/05 06:18:28;;;;;;;14.38;13.15;;;;;;;;;;5096042;28;20036;-74
2023/08/05 06:20:54;;;;;;;13.85;12.52;;;;;;;;;;5099129;28;20031;-73
2023/08/05 06:23:19;;;;;;;13.18;11.88;;;;;;;;;;5096536;28;20759;-74
2023/08/05 06:25:45;;;;;;;13.48;12.00;;;;;;;;;;5099502;28;20415;-73
2023/08/05 06:28:11;;;;;;;12.45;11.25;;;;;;;;;;5097537;28;20135;-77
2023/08/05 06:30:41;;;;;;;14.63;12.38;;;;;;;;;;5099464;28;20182;-74
2023/08/05 06:33:07;;;;;;;14.07;12.75;;;;;;;;;;5098651;28;20131;-74
2023/08/05 06:35:33;;;;;;;17.77;12.40;;;;;;;;;;5100177;28;20677;-75
2023/08/05 06:37:58;;;;;;;12.65;11.60;;;;;;;;;;5096545;28;20054;-74
2023/08/05 06:40:24;;;;;;;12.48;11.35;;;;;;;;;;5100158;28;20431;-74
2023/08/05 06:42:50;;;;;;;11.45;10.55;;;;;;;;;;5098472;28;20438;-73
2023/08/05 06:45:16;;;;;;;12.02;10.40;;;;;;;;;;5100238;28;20118;-73
2023/08/05 06:47:41;;;;;;;11.55;10.40;;;;;;;;;;5099414;28;20556;-79
2023/08/05 06:50:07;;;;;;;12.10;10.85;;;;;;;;;;5097990;28;20050;-75
2023/08/05 06:52:33;;;;;;;10.90;10.00;;;;;;;;;;5098730;28;21316;-74
2023/08/05 06:55:01;;;;;;;11.50;10.50;;;;;;;;;;5098417;28;20102;-73
2023/08/05 06:57:27;;;;;;;11.02;10.00;;;;;;;;;;5097951;28;20031;-76
2023/08/05 06:59:52;;;;;;;11.23;10.10;;;;;;;;;;5098442;28;20024;-73
2023/08/05 07:02:17;;;;;;;14.23;10.50;;;;;;;;;;5097590;28;20304;-74
2023/08/05 07:04:43;;;;;;;10.77;9.88;;;;;;;;;;5096633;28;20036;-73
2023/08/05 07:07:08;;;;;;;11.85;10.43;;;;;;;;;;5098098;28;20031;-74
2023/08/05 07:09:33;;;;;;;10.68;9.68;;;;;;;;;;5096288;28;20080;-73
2023/08/05 07:11:59;;;;;;;10.98;9.65;;;;;;;;;;5094864;28;20027;-73
2023/08/05 07:14:25;;;;;;;10.68;9.63;;;;;;;;;;5098505;28;20027;-74
2023/08/05 07:16:50;;;;;;;12.00;10.82;;;;;;;;;;5099131;28;20103;-74
2023/08/05 07:19:16;;;;;;;10.65;9.65;;;;;;;;;;5092953;28;20192;-74
2023/08/05 07:21:41;;;;;;;10.85;9.82;;;;;;;;;;5097647;28;20109;-74
2023/08/05 07:24:07;;;;;;;10.77;9.77;;;;;;;;;;5095644;28;20036;-73
2023/08/05 07:26:32;;;;;;;14.15;9.38;;;;;;;;;;5103674;28;20084;-72
2023/08/05 07:28:57;;;;;;;10.20;8.88;;;;;;;;;;5104910;28;20133;-73
2023/08/05 07:31:22;;;;;;;10.45;9.38;;;;;;;;;;5104413;28;20087;-72
2023/08/05 07:33:48;;;;;;;10.55;9.68;;;;;;;;;;5102084;27;20027;-74
2023/08/05 07:36:16;;;;;;;9.98;9.02;;;;;;;;;;5099145;28;20106;-73
2023/08/05 07:38:42;;;;;;;10.85;9.85;;;;;;;;;;5104010;27;20419;-75
2023/08/05 07:41:07;;;;;;;13.93;9.52;;;;;;;;;;5102079;28;20453;-73
2023/08/05 07:43:35;;;;;;;11.75;9.20;;;;;;;;;;5103825;28;20062;-74
2023/08/05 07:46:02;;;;;;;10.10;8.93;;;;;;;;;;5100584;28;20019;-75
2023/08/05 07:48:28;;;;;;;9.65;8.73;;;;;;;;;;5098831;27;20107;-73
2023/08/05 07:50:54;;;;;;;9.75;8.95;;;;;;;;;;5102801;28;20431;-73
2023/08/05 07:53:23;;;;;;;9.02;8.30;;;;;;;;;;5103935;28;20043;-77
2023/08/05 07:55:48;;;;;;;9.07;8.38;;;;;;;;;;5102277;28;20020;-73
2023/08/05 07:58:14;;;;;;;9.65;8.80;;;;;;;;;;5103388;28;20024;-74
2023/08/05 08:00:42;;;;;;;10.70;9.55;;;;;;;;;;5099295;28;20027;-73
2023/08/05 08:03:07;;;;;;;10.75;9.07;;;;;;;;;;5096634;27;20035;-74
2023/08/05 08:05:32;;;;;;;9.73;8.60;;;;;;;;;;5101875;28;20354;-74
2023/08/05 08:08:00;;;;;;;13.02;9.25;;;;;;;;;;5101580;28;20031;-74
2023/08/05 08:10:25;;;;;;;9.35;8.55;;;;;;;;;;5101434;28;20036;-75
2023/08/05 08:12:53;;;;;;;9.23;8.13;;;;;;;;;;5102404;28;20020;-74
2023/08/05 08:15:20;;;;;;;41.53;17.20;;;;;;;;;;5100086;28;20480;-75
2023/08/05 08:17:45;;;;;;;19.60;8.85;;;;;;;;;;5099614;28;20036;-73
2023/08/05 08:20:11;;;;;;;9.57;8.60;;;;;;;;;;5100114;28;20103;-75
2023/08/05 08:22:36;;;;;;;10.93;8.52;;;;;;;;;;5101114;28;20030;-73
2023/08/05 08:25:02;;;;;;;9.25;8.32;;;;;;;;;;5103117;28;20347;-76
2023/08/05 08:27:27;;;;;;;9.63;8.63;;;;;;;;;;5099808;28;20024;-74
2023/08/05 08:29:53;;;;;;;8.68;7.78;;;;;;;;;;5103164;28;20031;-73
2023/08/05 08:32:18;;;;;;;9.10;8.30;;;;;;;;;;5101696;28;20426;-73
2023/08/05 08:34:43;;;;;;;8.73;8.02;;;;;;;;;;5100961;28;20420;-74
2023/08/05 08:37:09;;;;;;;8.77;7.82;;;;;;;;;;5100859;28;20023;-73
2023/08/05 08:39:34;;;;;;;9.02;8.27;;;;;;;;;;5099549;28;20051;-75
2023/08/05 08:42:00;;;;;;;9.25;8.40;;;;;;;;;;5099951;28;20058;-76
2023/08/05 08:44:26;;;;;;;11.80;8.35;;;;;;;;;;5098934;28;20110;-75
2023/08/05 08:46:51;;;;;;;9.95;8.95;;;;;;;;;;5100588;28;20032;-74
2023/08/05 08:49:18;;;;;;;9.52;8.73;;;;;;;;;;5100126;28;20092;-75
2023/08/05 08:51:47;;;;;;;9.05;8.13;;;;;;;;;;5103050;28;20030;-73
2023/08/05 08:54:16;;;;;;;8.32;7.50;;;;;;;;;;5099800;28;20036;-73
2023/08/05 08:56:42;;;;;;;9.18;8.35;;;;;;;;;;5101667;28;20023;-72
2023/08/05 08:59:07;;;;;;;8.80;8.10;;;;;;;;;;5100886;28;20047;-76
2023/08/05 09:01:34;;;;;;;9.27;7.40;;;;;;;;;;5101141;28;20038;-74
2023/08/05 09:04:00;;;;;;;8.52;7.45;;;;;;;;;;5101492;27;20055;-75
2023/08/05 09:06:26;;;;;;;9.00;8.07;;;;;;;;;;5100316;28;20084;-74
2023/08/05 09:08:51;;;;;;;8.55;7.75;;;;;;;;;;5098833;27;20027;-78
2023/08/05 09:11:16;;;;;;;8.63;7.88;;;;;;;;;;5099172;28;20451;-75
2023/08/05 09:13:42;;;;;;;8.82;7.82;;;;;;;;;;5101293;28;20015;-75
2023/08/05 09:16:12;;;;;;;8.82;7.88;;;;;;;;;;5099400;28;20032;-76
2023/08/05 09:18:42;;;;;;;10.75;7.28;;;;;;;;;;5099751;28;20016;-75
2023/08/05 09:21:07;;;;;;;8.70;7.28;;;;;;;;;;5102286;28;20023;-75
2023/08/05 09:23:43;;;;;;;8.55;7.63;;;;;;;;;;5099322;28;20027;-77
2023/08/05 09:26:11;;;;;;;10.95;8.25;;;;;;;;;;5098844;28;20027;-73
2023/08/05 09:28:36;;;;;;;11.73;8.02;;;;;;;;;;5097134;28;20407;-75
2023/08/05 09:31:10;;;;;;;10.93;7.90;;;;;;;;;;5097936;28;20042;-74
2023/08/05 09:33:36;;;;;;;8.13;7.05;;;;;;;;;;5098919;28;20027;-76
2023/08/05 09:36:07;;;;;;;9.30;8.60;;;;;;;;;;5098856;28;20028;-76
2023/08/05 09:38:33;;;;;;;9.48;8.50;;;;;;;;;;5098664;28;20039;-75
2023/08/05 09:41:00;;;;;;;8.00;7.28;;;;;;;;;;5101230;28;20081;-75
2023/08/05 09:43:28;;;;;;;12.70;8.38;;;;;;;;;;5099662;28;20447;-74
2023/08/05 09:45:54;;;;;;;11.52;8.50;;;;;;;;;;5100351;28;20042;-74
2023/08/05 09:48:22;;;;;;;12.60;8.65;;;;;;;;;;5101098;27;20035;-75
2023/08/05 09:50:48;;;;;;;9.20;7.47;;;;;;;;;;5095947;28;20051;-76
2023/08/05 09:53:17;;;;;;;9.57;8.77;;;;;;;;;;5098641;28;20486;-73
2023/08/05 09:55:43;;;;;;;10.60;8.20;;;;;;;;;;5098344;28;20096;-76
2023/08/05 09:58:09;;;;;;;8.50;7.70;;;;;;;;;;5097201;28;20028;-77
2023/08/05 10:00:35;;;;;;;8.85;7.97;;;;;;;;;;5098738;28;20031;-73
2023/08/05 10:03:04;;;;;;;8.70;7.88;;;;;;;;;;5100802;27;20042;-75
2023/08/05 10:05:29;;;;;;;;;;;;;;;;;;5099035;28;20074;-73
2023/08/05 10:07:55;;;;;;;8.80;8.10;;;;;;;;;;5098302;28;19959;-76
2023/08/05 10:10:20;;;;;;;8.43;7.72;;;;;;;;;;5099810;28;20110;-74
2023/08/05 10:12:51;;;;;;;7.60;6.97;;;;;;;;;;5098176;28;20035;-74
2023/08/05 10:15:25;;;;;;;8.65;7.82;;;;;;;;;;5100274;28;20028;-74
2023/08/05 10:17:52;;;;;;;8.23;7.47;;;;;;;;;;5099035;28;20025;-77
2023/08/05 10:20:17;;;;;;;7.80;7.00;;;;;;;;;;5098842;28;20038;-76
2023/08/05 10:23:00;;;;;;;8.73;7.85;;;;;;;;;;5099271;28;20027;-75
2023/08/05 10:25:45;;;;;;;8.27;6.80;;;;;;;;;;5099339;28;20024;-76
2023/08/05 10:28:31;;;;;;;11.93;7.95;;;;;;;;;;5101245;28;20760;-74
2023/08/05 10:30:57;;;;;;;9.05;7.07;;;;;;;;;;5098466;28;20593;-73
2023/08/05 10:33:22;;;;;;;7.50;6.80;;;;;;;;;;5098561;28;20028;-73
2023/08/05 10:35:49;;;;;;;8.57;7.20;;;;;;;;;;5100241;28;20027;-73
2023/08/05 10:38:16;;;;;;;8.18;7.35;;;;;;;;;;5098774;28;20040;-74
2023/08/05 10:40:41;;;;;;;8.02;7.22;;;;;;;;;;5098928;28;20114;-75
2023/08/05 10:43:07;;;;;;;8.80;7.20;;;;;;;;;;5100234;28;20114;-76
2023/08/05 10:45:33;;;;;;;7.68;6.88;;;;;;;;;;5096557;28;20120;-74
2023/08/05 10:47:59;;;;;;;8.00;7.30;;;;;;;;;;5099605;28;20451;-73
2023/08/05 10:50:26;;;;;;;8.38;7.30;;;;;;;;;;5097738;28;20463;-75
2023/08/05 10:52:52;;;;;;;7.80;7.00;;;;;;;;;;5100474;28;20030;-76
2023/08/05 10:55:23;;;;;;;7.88;6.90;;;;;;;;;;5095567;28;20039;-75
2023/08/05 10:57:52;;;;;;;8.68;6.65;;;;;;;;;;5096599;28;20024;-74
2023/08/05 11:00:18;;;;;;;7.65;6.95;;;;;;;;;;5097847;28;20149;-75
2023/08/05 11:02:46;;;;;;;7.38;6.72;;;;;;;;;;5101549;27;20379;-73
2023/08/05 11:05:11;;;;;;;9.50;6.57;;;;;;;;;;5103717;28;20039;-74
2023/08/05 11:07:40;;;;;;;7.35;6.72;;;;;;;;;;5103424;28;20020;-75
2023/08/05 11:10:06;;;;;;;8.05;7.22;;;;;;;;;;5100821;28;20027;-73
2023/08/05 11:12:33;;;;;;;7.93;6.85;;;;;;;;;;5100693;28;20088;-72
2023/08/05 11:14:58;;;;;;;7.25;6.68;;;;;;;;;;5103105;28;20095;-77
2023/08/05 11:17:24;;;;;;;12.48;6.95;;;;;;;;;;5103254;28;20446;-76
2023/08/05 11:19:50;;;;;;;7.60;7.00;;;;;;;;;;5103106;28;20358;-73
2023/08/05 11:22:29;;;;;;;7.57;6.85;;;;;;;;;;5102183;28;20035;-74
2023/08/05 11:24:58;;;;;;;8.77;6.50;;;;;;;;;;5102879;28;20173;-74
2023/08/05 11:27:33;;;;;;;7.72;6.95;;;;;;;;;;5101692;28;20407;-75
2023/08/05 11:30:09;;;;;;;7.03;6.43;;;;;;;;;;5102509;28;20038;-74
2023/08/05 11:32:47;;;;;;;7.75;6.72;;;;;;;;;;5100678;28;20042;-75
2023/08/05 11:35:13;;;;;;;;;;;;;;;;;;5102468;28;20358;-73
2023/08/05 11:37:38;;;;;;;9.27;6.60;;;;;;;;;;5101954;28;19908;-74
2023/08/05 11:40:04;;;;;;;7.20;6.65;;;;;;;;;;5101717;28;20148;-74
2023/08/05 11:42:30;;;;;;;6.65;5.93;;;;;;;;;;5100817;28;20439;-75
2023/08/05 11:44:55;;;;;;;9.88;5.88;;;;;;;;;;5099429;28;20042;-74
2023/08/05 11:47:20;;;;;;;7.93;6.50;;;;;;;;;;5101141;28;20026;-75
2023/08/05 11:49:52;;;;;;;8.13;6.57;;;;;;;;;;5100759;28;20027;-80
2023/08/05 11:52:18;;;;;;;8.25;6.45;;;;;;;;;;5100686;28;20051;-74
2023/08/05 11:54:45;;;;;;;7.35;6.32;;;;;;;;;;5100644;28;20164;-73
2023/08/05 11:57:18;;;;;;;7.90;6.40;;;;;;;;;;5102990;28;20052;-75
2023/08/05 11:59:45;;;;;;;6.97;6.28;;;;;;;;;;5100981;28;20081;-74
2023/08/05 12:02:11;;;;;;;7.28;6.40;;;;;;;;;;5103063;28;20027;-74
2023/08/05 12:04:41;;;;;;;6.35;5.93;;;;;;;;;;5102046;28;20028;-72
2023/08/05 12:07:09;;;;;;;5.63;5.20;;;;;;;;;;5100196;28;21078;-73
2023/08/05 12:09:34;;;;;;;;;;;;;;;;;;5102352;28;20015;-73
2023/08/05 12:12:00;;;;;;;6.90;5.70;;;;;;;;;;5102653;28;19927;-75
2023/08/05 12:14:25;;;;;;;6.35;5.40;;;;;;;;;;5101356;27;20106;-73
2023/08/05 12:16:55;;;;;;;6.75;5.40;;;;;;;;;;5102381;28;20048;-74
2023/08/05 12:19:20;;;;;;;6.07;5.57;;;;;;;;;;5102831;27;20726;-74
2023/08/05 12:21:46;;;;;;;5.95;5.45;;;;;;;;;;5101849;28;24110;-73
2023/08/05 12:24:11;;;;;;;6.03;5.43;;;;;;;;;;5099175;28;20059;-73
2023/08/05 12:26:36;;;;;;;6.07;5.47;;;;;;;;;;5101779;28;20654;-74
2023/08/05 12:29:02;;;;;;;6.60;5.40;;;;;;;;;;5100127;28;20380;-73
2023/08/05 12:31:29;;;;;;;8.40;5.57;;;;;;;;;;5102351;28;20043;-73
2023/08/05 12:33:55;;;;;;;5.82;5.32;;;;;;;;;;5102279;27;20035;-76
2023/08/05 12:36:20;;;;;;;6.05;5.50;;;;;;;;;;5097482;28;20466;-75
2023/08/05 12:38:48;;;;;;;6.57;5.60;;;;;;;;;;5098418;28;20118;-75
2023/08/05 12:41:13;;;;;;;6.93;5.40;;;;;;;;;;5100767;28;20041;-74
2023/08/05 12:43:38;;;;;;;6.00;5.40;;;;;;;;;;5100859;28;20020;-76
2023/08/05 12:46:04;;;;;;;5.85;5.13;;;;;;;;;;5102342;28;20502;-76
2023/08/05 12:48:29;;;;;;;7.37;5.30;;;;;;;;;;5099449;28;20412;-75
2023/08/05 12:50:54;;;;;;;6.00;5.43;;;;;;;;;;5103870;27;20598;-74
2023/08/05 12:53:20;;;;;;;7.72;5.18;;;;;;;;;;5102973;28;21091;-75
2023/08/05 12:55:45;;;;;;;6.00;5.50;;;;;;;;;;5102077;28;20016;-74
2023/08/05 12:58:11;;;;;;;6.65;5.30;;;;;;;;;;5099791;28;20046;-74
2023/08/05 13:00:36;;;;;;;8.05;5.25;;;;;;;;;;5099576;28;20023;-74
2023/08/05 13:03:02;;;;;;;6.00;5.40;;;;;;;;;;5101403;28;20041;-74
2023/08/05 13:05:27;;;;;;;6.10;5.47;;;;;;;;;;5099441;28;20016;-73
2023/08/05 13:07:52;;;;;;;5.20;4.68;;;;;;;;;;5098847;28;20024;-76
2023/08/05 13:10:18;;;;;;;6.20;5.60;;;;;;;;;;5102376;28;20035;-75
2023/08/05 13:12:43;;;;;;;6.38;5.78;;;;;;;;;;5098744;28;20474;-77
2023/08/05 13:15:08;;;;;;;7.00;5.53;;;;;;;;;;5099020;28;20077;-73
2023/08/05 13:17:34;;;;;;;6.50;5.72;;;;;;;;;;5100924;28;20023;-76
2023/08/05 13:19:59;;;;;;;5.97;4.80;;;;;;;;;;5102739;28;20342;-74
2023/08/05 13:22:24;;;;;;;6.35;5.75;;;;;;;;;;5100460;28;20100;-74
2023/08/05 13:24:50;;;;;;;10.38;5.30;;;;;;;;;;5100714;28;20028;-74
2023/08/05 13:27:15;;;;;;;5.55;5.15;;;;;;;;;;5099909;28;20023;-73
2023/08/05 13:29:40;;;;;;;7.68;5.80;;;;;;;;;;5098700;28;20019;-74
2023/08/05 13:32:06;;;;;;;5.78;5.20;;;;;;;;;;5098387;28;20035;-74
2023/08/05 13:34:31;;;;;;;11.13;5.30;;;;;;;;;;5102413;28;20039;-75
2023/08/05 13:36:56;;;;;;;7.63;5.10;;;;;;;;;;5098987;28;20033;-77
2023/08/05 13:39:25;;;;;;;6.47;5.40;;;;;;;;;;5100910;28;20280;-76
2023/08/05 13:41:56;;;;;;;6.43;5.75;;;;;;;;;;5099014;28;20106;-74
2023/08/05 13:44:22;;;;;;;8.20;5.60;;;;;;;;;;5097573;28;20395;-73
2023/08/05 13:46:47;;;;;;;9.52;5.80;;;;;;;;;;5100944;28;20067;-74
2023/08/05 13:49:14;;;;;;;7.45;5.13;;;;;;;;;;5100450;28;20019;-75
2023/08/05 13:51:39;;;;;;;5.93;5.32;;;;;;;;;;5097558;28;20032;-75
2023/08/05 13:54:05;;;;;;;7.07;5.97;;;;;;;;;;5100024;28;20496;-74
2023/08/05 13:56:30;;;;;;;6.68;6.07;;;;;;;;;;5100635;28;20515;-75
2023/08/05 13:58:57;;;;;;;6.65;6.05;;;;;;;;;;5098498;28;20035;-74
2023/08/05 14:01:22;;;;;;;6.63;5.90;;;;;;;;;;5098167;28;20032;-73
2023/08/05 14:03:48;;;;;;;8.00;6.63;;;;;;;;;;5100305;28;20080;-75
2023/08/05 14:06:13;;;;;;;13.90;6.45;;;;;;;;;;5099822;28;20027;-74
2023/08/05 14:08:39;;;;;;;7.00;6.30;;;;;;;;;;5098028;28;20528;-75
2023/08/05 14:11:04;;;;;;;7.72;6.18;;;;;;;;;;5099627;28;20036;-74
2023/08/05 14:13:29;;;;;;;6.65;5.97;;;;;;;;;;5094691;28;20492;-72
2023/08/05 14:15:56;;;;;;;6.68;6.00;;;;;;;;;;5098392;28;20027;-74
2023/08/05 14:18:21;;;;;;;7.65;5.85;;;;;;;;;;5097090;28;20506;-74
2023/08/05 14:20:50;;;;;;;7.63;6.00;;;;;;;;;;5098962;28;20143;-74
2023/08/05 14:23:15;;;;;;;6.65;6.05;;;;;;;;;;5097544;28;20035;-73
2023/08/05 14:25:44;;;;;;;7.65;5.35;;;;;;;;;;5097522;28;20054;-73